createdAt,value
2022-12-18T00:02:14.178Z,79675.47
2022-12-18T00:04:41.168Z,79667.34
2022-12-18T00:07:08.407Z,79673.44
2022-12-18T00:09:40.261Z,79671.41
2022-12-18T00:14:44.385Z,79667.34
2022-12-18T00:17:11.492Z,79669.38
2022-12-18T00:19:38.302Z,79667.34
2022-12-18T00:22:07.026Z,79661.28
2022-12-18T00:24:33.886Z,79659.25
2022-12-18T00:27:01.029Z,79661.28
2022-12-18T00:29:27.959Z,79659.25
2022-12-18T00:31:55.136Z,79663.28
2022-12-18T00:34:21.983Z,79663.28
2022-12-18T00:36:49.434Z,79659.25
2022-12-18T00:39:16.504Z,79659.25
2022-12-18T00:42:03.818Z,79653.16
2022-12-18T00:44:31.933Z,79647.06
2022-12-18T00:46:59.610Z,79651.13
2022-12-18T00:49:26.539Z,79638.94
2022-12-18T00:51:54.349Z,79643.00
2022-12-18T00:54:21.241Z,79643.00
2022-12-18T00:56:49.676Z,79643.00
2022-12-18T00:59:18.800Z,79638.94
2022-12-18T01:01:46.242Z,79634.88
2022-12-18T01:04:13.645Z,79643.00
2022-12-18T01:06:41.269Z,79634.88
2022-12-18T01:09:08.166Z,79643.00
2022-12-18T01:11:37.517Z,79643.00
2022-12-18T01:14:05.536Z,79643.00
2022-12-18T01:16:32.787Z,79655.19
2022-12-18T01:18:59.687Z,79651.13
2022-12-18T01:21:28.046Z,79663.28
2022-12-18T01:23:56.642Z,79659.25
2022-12-18T01:26:25.760Z,79663.28
2022-12-18T01:28:52.813Z,79663.28
2022-12-18T01:31:25.809Z,79663.28
2022-12-18T01:33:54.165Z,79667.34
2022-12-18T01:36:24.834Z,79667.34
2022-12-18T01:38:52.672Z,79667.34
2022-12-18T01:41:24.557Z,79669.38
2022-12-18T01:43:57.939Z,79661.28
2022-12-18T01:46:27.141Z,79669.38
2022-12-18T01:49:02.425Z,79669.38
2022-12-18T01:51:31.756Z,79669.38
2022-12-18T01:54:00.321Z,79667.34
2022-12-18T01:56:28.175Z,79683.59
2022-12-18T01:59:00.972Z,79679.53
2022-12-18T02:01:30.336Z,79677.50
2022-12-18T02:04:17.379Z,79683.59
2022-12-18T02:06:45.046Z,79677.50
2022-12-18T02:09:19.765Z,79683.59
2022-12-18T02:11:58.085Z,79679.53
2022-12-18T02:14:44.117Z,79689.66
2022-12-18T02:17:19.369Z,79695.75
2022-12-18T02:20:11.775Z,79695.75
2022-12-18T02:22:45.606Z,79697.78
2022-12-18T02:25:27.889Z,79703.88
2022-12-18T02:27:58.841Z,79707.94
2022-12-18T02:30:27.640Z,79716.03
2022-12-18T02:32:56.848Z,79716.03
2022-12-18T02:35:44.533Z,79707.94
2022-12-18T02:38:13.510Z,79712.00
2022-12-18T02:40:43.550Z,79718.06
2022-12-18T02:43:16.706Z,79724.16
2022-12-18T02:45:53.335Z,79728.22
2022-12-18T02:48:33.630Z,79728.22
2022-12-18T02:51:23.056Z,79720.09
2022-12-18T02:54:35.836Z,79716.03
2022-12-18T02:57:15.779Z,79740.41
2022-12-18T02:59:59.365Z,79740.41
2022-12-18T03:03:04.154Z,79740.41
2022-12-18T03:05:37.820Z,79748.50
2022-12-18T03:08:09.755Z,79756.63
2022-12-18T03:10:50.693Z,79760.69
2022-12-18T03:13:25.626Z,79764.75
2022-12-18T03:15:56.892Z,79756.63
2022-12-18T03:18:30.775Z,79762.72
2022-12-18T03:21:01.265Z,79768.81
2022-12-18T03:23:33.461Z,79776.91
2022-12-18T03:26:07.617Z,79764.75
2022-12-18T03:28:44.159Z,79776.91
2022-12-18T03:31:14.244Z,79797.22
2022-12-18T03:33:53.484Z,79793.16
2022-12-18T03:36:25.674Z,79805.31
2022-12-18T03:38:52.845Z,79803.28
2022-12-18T03:41:34.682Z,79805.31
2022-12-18T03:45:09.354Z,79805.31
2022-12-18T03:48:12.485Z,79813.44
2022-12-18T03:50:41.634Z,79809.38
2022-12-18T03:53:27.117Z,79817.50
2022-12-18T03:55:54.798Z,79817.50
2022-12-18T03:58:26.738Z,79819.53
2022-12-18T04:01:10.034Z,79817.50
2022-12-18T04:03:39.360Z,79813.44
2022-12-18T04:06:08.640Z,79809.38
2022-12-18T04:08:36.430Z,79827.66
2022-12-18T04:11:06.976Z,79825.63
2022-12-18T04:13:39.332Z,79825.63
2022-12-18T04:16:11.211Z,79833.72
2022-12-18T04:18:41.784Z,79833.72
2022-12-18T04:21:09.310Z,79821.56
2022-12-18T04:23:37.624Z,79821.56
2022-12-18T04:26:04.933Z,79833.72
2022-12-18T04:28:50.882Z,79849.97
2022-12-18T04:31:17.833Z,79858.06
2022-12-18T04:33:45.118Z,79874.31
2022-12-18T04:36:13.435Z,79870.25
2022-12-18T04:38:41.290Z,79874.31
2022-12-18T04:41:12.197Z,79878.38
2022-12-18T04:43:40.860Z,79886.47
2022-12-18T04:46:09.085Z,79898.66
2022-12-18T04:48:37.410Z,79906.78
2022-12-18T04:51:05.541Z,79923.00
2022-12-18T04:53:33.468Z,79931.13
2022-12-18T04:56:04.565Z,79931.13
2022-12-18T04:58:31.600Z,79943.31
2022-12-18T05:00:58.427Z,79939.25
2022-12-18T05:03:25.566Z,79955.47
2022-12-18T05:05:52.704Z,79953.44
2022-12-18T05:08:20.026Z,79969.69
2022-12-18T05:10:46.905Z,79992.00
2022-12-18T05:13:14.231Z,79996.06
2022-12-18T05:15:41.164Z,80010.25
2022-12-18T05:18:08.843Z,80020.41
2022-12-18T05:20:35.640Z,80032.59
2022-12-18T05:23:02.743Z,80036.63
2022-12-18T05:25:29.707Z,80044.75
2022-12-18T05:27:57.105Z,80048.81
2022-12-18T05:30:24.178Z,80040.69
2022-12-18T05:32:51.234Z,80048.81
2022-12-18T05:35:18.663Z,80050.84
2022-12-18T05:37:46.024Z,80044.75
2022-12-18T05:40:13.143Z,80061.00
2022-12-18T05:42:40.656Z,80061.00
2022-12-18T05:45:08.109Z,80065.03
2022-12-18T05:47:35.274Z,80056.94
2022-12-18T05:50:02.209Z,80061.00
2022-12-18T05:52:29.344Z,80065.03
2022-12-18T05:54:56.095Z,80069.09
2022-12-18T05:57:23.247Z,80065.03
2022-12-18T05:59:50.092Z,80067.06
2022-12-18T06:02:17.585Z,80069.09
2022-12-18T06:04:44.898Z,80077.22
2022-12-18T06:07:12.040Z,80085.34
2022-12-18T06:09:38.755Z,80081.28
2022-12-18T06:12:06.230Z,80093.44
2022-12-18T06:14:33.051Z,80093.44
2022-12-18T06:17:00.184Z,80113.75
2022-12-18T06:19:26.959Z,80099.53
2022-12-18T06:21:54.200Z,80089.41
2022-12-18T06:24:21.160Z,80093.44
2022-12-18T06:26:48.283Z,80089.41
2022-12-18T06:29:15.171Z,80089.41
2022-12-18T06:31:42.324Z,80085.34
2022-12-18T06:34:09.177Z,80091.44
2022-12-18T06:36:36.492Z,80089.41
2022-12-18T06:39:04.250Z,80089.41
2022-12-18T06:41:31.600Z,80093.44
2022-12-18T06:44:00.020Z,80093.44
2022-12-18T06:46:28.035Z,80085.34
2022-12-18T06:48:54.933Z,80089.41
2022-12-18T06:51:24.958Z,80093.44
2022-12-18T06:53:52.117Z,80085.34
2022-12-18T06:56:19.237Z,80101.56
2022-12-18T06:58:46.210Z,80093.44
2022-12-18T07:01:31.699Z,80101.56
2022-12-18T07:03:59.066Z,80101.56
2022-12-18T07:06:27.003Z,80105.63
2022-12-18T07:08:55.193Z,80101.56
2022-12-18T07:11:22.652Z,80095.47
2022-12-18T07:13:49.870Z,80109.69
2022-12-18T07:16:24.820Z,80101.56
2022-12-18T07:18:55.071Z,80095.47
2022-12-18T07:21:22.803Z,80093.44
2022-12-18T07:23:50.491Z,80089.41
2022-12-18T07:26:20.873Z,80081.28
2022-12-18T07:28:49.045Z,80081.28
2022-12-18T07:31:19.543Z,80077.22
2022-12-18T07:33:49.386Z,80069.09
2022-12-18T07:36:16.554Z,80061.00
2022-12-18T07:38:44.031Z,80071.13
2022-12-18T07:41:13.126Z,80069.09
2022-12-18T07:43:42.034Z,80065.03
2022-12-18T07:46:10.721Z,80058.97
2022-12-18T07:48:41.269Z,80052.88
2022-12-18T07:51:08.479Z,80065.03
2022-12-18T07:53:37.439Z,80054.91
2022-12-18T07:58:54.984Z,80024.47
2022-12-18T08:01:22.018Z,80028.53
2022-12-18T08:03:50.165Z,80040.69
2022-12-18T08:06:22.369Z,80040.69
2022-12-18T08:08:53.624Z,80040.69
2022-12-18T08:11:20.655Z,80056.94
2022-12-18T08:13:48.677Z,80052.88
2022-12-18T08:16:16.761Z,80061.00
2022-12-18T08:18:43.988Z,80065.03
2022-12-18T08:21:22.145Z,80061.00
2022-12-18T08:23:51.652Z,80065.03
2022-12-18T08:26:19.465Z,80065.03
2022-12-18T08:28:48.838Z,80058.97
2022-12-18T08:31:16.689Z,80058.97
2022-12-18T08:33:44.390Z,80061.00
2022-12-18T08:36:12.030Z,80081.28
2022-12-18T08:38:39.298Z,80077.22
2022-12-18T08:41:08.322Z,80073.16
2022-12-18T08:43:54.059Z,80093.44
2022-12-18T08:46:22.901Z,80077.22
2022-12-18T08:48:52.373Z,80089.41
2022-12-18T08:51:20.024Z,80083.31
2022-12-18T08:53:47.332Z,80089.41
2022-12-18T08:56:14.899Z,80105.63
2022-12-18T08:58:43.020Z,80105.63
2022-12-18T09:01:12.364Z,80107.66
2022-12-18T09:03:40.593Z,80093.44
2022-12-18T09:06:08.322Z,80091.44
2022-12-18T09:08:35.630Z,80097.50
2022-12-18T09:11:03.204Z,80105.63
2022-12-18T09:13:30.533Z,80117.81
2022-12-18T09:15:57.708Z,80105.63
2022-12-18T09:18:26.066Z,80101.56
2022-12-18T09:20:54.048Z,80105.63
2022-12-18T09:23:22.370Z,80097.50
2022-12-18T09:25:49.666Z,80093.44
2022-12-18T09:28:20.266Z,80073.16
2022-12-18T09:30:50.802Z,80061.00
2022-12-18T09:33:18.459Z,80050.84
2022-12-18T09:35:46.708Z,80048.81
2022-12-18T09:38:19.003Z,80061.00
2022-12-18T09:40:51.023Z,80077.22
2022-12-18T09:43:23.214Z,80063.00
2022-12-18T09:46:00.313Z,80040.69
2022-12-18T09:48:32.467Z,80028.53
2022-12-18T09:51:11.968Z,80020.41
2022-12-18T09:53:41.760Z,80016.34
2022-12-18T09:56:16.279Z,80024.47
2022-12-18T09:58:54.275Z,80044.75
2022-12-18T10:01:25.153Z,80016.34
2022-12-18T10:03:54.632Z,80004.16
2022-12-18T10:06:30.685Z,80000.13
2022-12-18T10:09:09.278Z,79994.03
2022-12-18T10:11:45.267Z,79967.66
2022-12-18T10:14:35.882Z,79983.88
2022-12-18T10:17:13.413Z,80000.13
2022-12-18T10:19:50.523Z,80002.13
2022-12-18T10:22:27.014Z,79996.06
2022-12-18T10:25:15.514Z,79996.06
2022-12-18T10:27:42.616Z,80008.22
2022-12-18T10:30:18.444Z,80028.53
2022-12-18T10:32:45.478Z,80028.53
2022-12-18T10:35:21.784Z,80034.59
2022-12-18T10:38:21.576Z,80034.59
2022-12-18T10:40:56.597Z,80048.81
2022-12-18T10:43:42.045Z,80036.63
2022-12-18T10:46:09.264Z,80018.38
2022-12-18T10:48:54.631Z,80016.34
2022-12-18T10:51:34.826Z,80000.13
2022-12-18T10:54:17.245Z,80000.13
2022-12-18T10:56:45.082Z,80000.13
2022-12-18T10:59:15.642Z,79996.06
2022-12-18T11:01:52.190Z,80012.28
2022-12-18T11:04:24.246Z,79996.06
2022-12-18T11:07:00.628Z,79998.09
2022-12-18T11:09:36.377Z,79973.72
2022-12-18T11:12:17.863Z,79959.53
2022-12-18T11:14:51.983Z,79961.56
2022-12-18T11:17:36.020Z,79971.72
2022-12-18T11:20:21.518Z,79975.75
2022-12-18T11:23:01.512Z,79959.53
2022-12-18T11:25:32.580Z,79955.47
2022-12-18T11:28:05.210Z,79937.22
2022-12-18T11:30:36.008Z,79931.13
2022-12-18T11:33:10.831Z,79923.00
2022-12-18T11:35:56.282Z,79923.00
2022-12-18T11:38:30.347Z,79951.41
2022-12-18T11:40:59.751Z,79947.34
2022-12-18T11:43:36.078Z,79945.31
2022-12-18T11:46:08.501Z,79943.31
2022-12-18T11:48:44.759Z,79951.41
2022-12-18T11:51:18.839Z,79963.59
2022-12-18T11:53:46.035Z,79979.81
2022-12-18T11:56:23.837Z,79981.84
2022-12-18T11:58:58.531Z,79979.81
2022-12-18T12:01:51.630Z,79951.41
2022-12-18T12:04:39.442Z,79959.53
2022-12-18T12:07:48.296Z,79971.72
2022-12-18T12:10:28.877Z,79975.75
2022-12-18T12:13:11.663Z,79975.75
2022-12-18T12:16:07.440Z,79979.81
2022-12-18T12:18:44.840Z,79971.72
2022-12-18T12:21:37.373Z,79961.56
2022-12-18T12:24:19.699Z,79955.47
2022-12-18T12:27:00.931Z,79951.41
2022-12-18T12:29:39.055Z,79955.47
2022-12-18T12:32:12.515Z,79955.47
2022-12-18T12:35:09.821Z,79943.31
2022-12-18T12:37:42.809Z,79939.25
2022-12-18T12:40:49.319Z,79947.34
2022-12-18T12:43:16.170Z,79951.41
2022-12-18T12:46:10.531Z,79935.19
2022-12-18T12:48:49.300Z,79951.41
2022-12-18T12:51:34.976Z,79953.44
2022-12-18T12:54:06.185Z,79955.47
2022-12-18T12:57:12.865Z,79953.44
2022-12-18T13:00:04.038Z,79955.47
2022-12-18T13:02:57.155Z,79967.66
2022-12-18T13:05:32.338Z,80000.13
2022-12-18T13:08:07.163Z,80004.16
2022-12-18T13:10:36.046Z,80016.34
2022-12-18T13:13:13.300Z,80016.34
2022-12-18T13:15:49.687Z,80024.47
2022-12-18T13:18:24.835Z,80030.56
2022-12-18T13:21:05.187Z,80040.69
2022-12-18T13:23:35.902Z,80048.81
2022-12-18T13:26:11.276Z,80056.94
2022-12-18T13:28:47.666Z,80052.88
2022-12-18T13:31:36.487Z,80048.81
2022-12-18T13:37:32.501Z,80073.16
2022-12-18T13:39:59.482Z,80081.28
2022-12-18T13:42:58.983Z,80085.34
2022-12-18T13:45:42.529Z,80087.38
2022-12-18T13:48:25.084Z,80093.44
2022-12-18T13:51:01.652Z,80093.44
2022-12-18T13:53:34.161Z,80089.41
2022-12-18T13:56:01.690Z,80093.44
2022-12-18T13:58:28.982Z,80105.63
2022-12-18T14:00:56.021Z,80097.50
2022-12-18T14:03:29.573Z,80105.63
2022-12-18T14:06:04.266Z,80115.78
2022-12-18T14:08:40.854Z,80132.00
2022-12-18T14:11:18.827Z,80138.09
2022-12-18T14:13:47.590Z,80134.03
2022-12-18T14:16:16.940Z,80146.22
2022-12-18T14:18:56.375Z,80160.41
2022-12-18T14:21:31.287Z,80158.38
2022-12-18T14:24:06.074Z,80174.63
2022-12-18T14:26:34.276Z,80182.75
2022-12-18T14:29:19.285Z,80184.78
2022-12-18T14:31:46.811Z,80190.84
2022-12-18T14:34:18.101Z,80198.97
2022-12-18T14:36:53.507Z,80190.84
2022-12-18T14:39:20.630Z,80196.94
2022-12-18T14:41:50.050Z,80188.81
2022-12-18T14:44:17.257Z,80211.16
2022-12-18T14:46:49.055Z,80194.91
2022-12-18T14:49:22.946Z,80194.91
2022-12-18T14:51:52.985Z,80194.91
2022-12-18T14:54:23.361Z,80176.66
2022-12-18T14:57:02.389Z,80182.75
2022-12-18T14:59:30.917Z,80184.78
2022-12-18T15:02:20.974Z,80190.84
2022-12-18T15:04:48.733Z,80184.78
2022-12-18T15:07:17.517Z,80194.91
2022-12-18T15:10:02.337Z,80198.97
2022-12-18T15:12:42.122Z,80194.91
2022-12-18T15:15:34.578Z,80190.84
2022-12-18T15:18:08.474Z,80196.94
2022-12-18T15:20:56.776Z,80194.91
2022-12-18T15:23:28.316Z,80194.91
2022-12-18T15:26:07.356Z,80207.09
2022-12-18T15:28:47.637Z,80207.09
2022-12-18T15:31:15.882Z,80211.16
2022-12-18T15:33:51.595Z,80205.06
2022-12-18T15:36:26.533Z,80205.06
2022-12-18T15:38:56.796Z,80211.16
2022-12-18T15:41:36.016Z,80211.16
2022-12-18T15:44:04.694Z,80209.13
2022-12-18T15:46:32.260Z,80213.19
2022-12-18T15:49:02.567Z,80211.16
2022-12-18T15:51:34.395Z,80223.31
2022-12-18T15:54:04.982Z,80235.50
2022-12-18T15:56:51.280Z,80243.63
2022-12-18T15:59:20.733Z,80239.56
2022-12-18T16:01:50.059Z,80239.56
2022-12-18T16:04:21.239Z,80237.53
2022-12-18T16:07:13.960Z,80245.66
2022-12-18T16:09:36.727Z,80247.69
2022-12-18T16:12:04.179Z,80259.84
2022-12-18T16:14:31.741Z,80259.84
2022-12-18T16:17:06.301Z,80253.75
2022-12-18T16:19:33.350Z,80267.97
2022-12-18T16:22:00.469Z,80263.91
2022-12-18T16:24:33.009Z,80261.88
2022-12-18T16:27:01.651Z,80276.09
2022-12-18T16:29:30.335Z,80272.03
2022-12-18T16:31:59.371Z,80274.06
2022-12-18T16:34:29.559Z,80274.06
2022-12-18T16:37:04.864Z,80276.09
2022-12-18T16:39:34.300Z,80263.91
2022-12-18T16:42:05.292Z,80259.84
2022-12-18T16:44:34.578Z,80267.97
2022-12-18T16:47:03.273Z,80276.09
2022-12-18T16:49:30.876Z,80284.19
2022-12-18T16:51:58.152Z,80280.13
2022-12-18T16:54:25.149Z,80284.19
2022-12-18T16:56:52.903Z,80288.25
2022-12-18T16:59:20.042Z,80296.38
2022-12-18T17:01:48.276Z,80296.38
2022-12-18T17:04:15.527Z,80326.81
2022-12-18T17:06:45.341Z,80324.78
2022-12-18T17:09:15.624Z,80322.75
2022-12-18T17:11:43.388Z,80322.75
2022-12-18T17:14:15.585Z,80312.63
2022-12-18T17:16:43.123Z,80308.56
2022-12-18T17:19:16.800Z,80312.63
2022-12-18T17:21:47.727Z,80312.63
2022-12-18T17:24:14.766Z,80312.63
2022-12-18T17:26:42.353Z,80318.69
2022-12-18T17:29:13.667Z,80316.66
2022-12-18T17:31:40.970Z,80324.78
2022-12-18T17:34:09.648Z,80324.78
2022-12-18T17:36:37.217Z,80324.78
2022-12-18T17:39:05.692Z,80326.81
2022-12-18T17:41:33.506Z,80336.97
2022-12-18T17:44:02.835Z,80349.13
2022-12-18T17:46:32.292Z,80347.09
2022-12-18T17:49:00.644Z,80347.09
2022-12-18T17:51:28.536Z,80353.19
2022-12-18T17:53:55.616Z,80345.06
2022-12-18T17:56:24.647Z,80349.13
2022-12-18T17:58:52.617Z,80353.19
2022-12-18T18:01:23.760Z,80361.31
2022-12-18T18:03:53.663Z,80353.19
2022-12-18T18:06:22.083Z,80345.06
2022-12-18T18:08:48.911Z,80349.13
2022-12-18T18:11:37.339Z,80353.19
2022-12-18T18:14:07.740Z,80349.13
2022-12-18T18:16:40.893Z,80365.38
2022-12-18T18:19:11.174Z,80373.50
2022-12-18T18:21:41.112Z,80381.59
2022-12-18T18:24:09.869Z,80385.66
2022-12-18T18:26:37.460Z,80389.72
2022-12-18T18:29:06.584Z,80397.84
2022-12-18T18:31:41.426Z,80389.72
2022-12-18T18:34:14.313Z,80397.84
2022-12-18T18:36:42.109Z,80393.78
2022-12-18T18:39:09.094Z,80401.91
2022-12-18T18:41:37.597Z,80414.06
2022-12-18T18:44:04.855Z,80422.19
2022-12-18T18:46:32.159Z,80430.31
2022-12-18T18:48:59.073Z,80422.19
2022-12-18T18:51:31.460Z,80422.19
2022-12-18T18:54:01.400Z,80430.31
2022-12-18T18:59:17.175Z,80414.06
2022-12-18T19:01:44.752Z,80405.97
2022-12-18T19:04:11.918Z,80397.84
2022-12-18T19:06:39.709Z,80405.97
2022-12-18T19:09:07.764Z,80401.91
2022-12-18T19:11:53.802Z,80438.44
2022-12-18T19:14:20.749Z,80462.78
2022-12-18T19:16:48.085Z,80454.66
2022-12-18T19:19:17.294Z,80438.44
2022-12-18T19:21:44.592Z,80430.31
2022-12-18T19:24:11.468Z,80418.13
2022-12-18T19:26:38.822Z,80414.06
2022-12-18T19:29:08.147Z,80422.19
2022-12-18T19:31:37.033Z,80442.50
2022-12-18T19:34:07.901Z,80458.72
2022-12-18T19:36:37.940Z,80458.72
2022-12-18T19:39:14.179Z,80466.84
2022-12-18T19:41:43.279Z,80503.38
2022-12-18T19:44:13.121Z,80495.25
2022-12-18T19:46:42.383Z,80487.13
2022-12-18T19:49:11.228Z,80479.00
2022-12-18T19:51:39.045Z,80483.06
2022-12-18T19:54:05.876Z,80487.13
2022-12-18T19:56:35.128Z,80483.06
2022-12-18T19:59:03.147Z,80470.91
2022-12-18T20:01:31.539Z,80468.88
2022-12-18T20:03:59.760Z,80487.13
2022-12-18T20:06:32.575Z,80483.06
2022-12-18T20:09:03.003Z,80487.13
2022-12-18T20:11:31.357Z,80483.06
2022-12-18T20:14:01.390Z,80479.00
2022-12-18T20:16:29.346Z,80479.00
2022-12-18T20:18:57.993Z,80479.00
2022-12-18T20:21:25.620Z,80474.97
2022-12-18T20:23:53.146Z,80472.94
2022-12-18T20:26:20.446Z,80479.00
2022-12-18T20:28:47.296Z,80489.16
2022-12-18T20:31:14.605Z,80487.13
2022-12-18T20:33:42.959Z,80479.00
2022-12-18T20:36:16.345Z,80474.97
2022-12-18T20:38:48.497Z,80483.06
2022-12-18T20:41:23.276Z,80468.88
2022-12-18T20:43:50.970Z,80472.94
2022-12-18T20:46:18.279Z,80470.91
2022-12-18T20:48:46.147Z,80474.97
2022-12-18T20:51:17.021Z,80470.91
2022-12-18T20:53:45.352Z,80483.06
2022-12-18T20:56:21.909Z,80499.31
2022-12-18T20:58:54.992Z,80505.41
2022-12-18T21:01:23.608Z,80509.47
2022-12-18T21:03:51.156Z,80501.34
2022-12-18T21:06:20.452Z,80495.25
2022-12-18T21:08:48.951Z,80489.16
2022-12-18T21:11:35.950Z,80497.28
2022-12-18T21:14:06.230Z,80499.31
2022-12-18T21:16:33.175Z,80499.31
2022-12-18T21:19:00.418Z,80495.25
2022-12-18T21:21:27.386Z,80487.13
2022-12-18T21:23:54.958Z,80503.38
2022-12-18T21:26:24.302Z,80503.38
2022-12-18T21:29:17.053Z,80495.25
2022-12-18T21:31:45.427Z,80489.16
2022-12-18T21:34:19.487Z,80479.00
2022-12-18T21:36:47.576Z,80481.03
2022-12-18T21:39:16.005Z,80470.91
2022-12-18T21:42:02.205Z,80474.97
2022-12-18T21:44:30.479Z,80477.00
2022-12-18T21:47:08.070Z,80474.97
2022-12-18T21:49:39.891Z,80466.84
2022-12-18T21:52:10.007Z,80454.66
2022-12-18T21:54:37.184Z,80442.50
2022-12-18T21:57:06.044Z,80446.53
2022-12-18T21:59:36.315Z,80442.50
2022-12-18T22:02:07.873Z,80438.44
2022-12-18T22:04:35.068Z,80448.56
2022-12-18T22:07:02.971Z,80438.44
2022-12-18T22:09:30.131Z,80430.31
2022-12-18T22:11:57.080Z,80422.19
2022-12-18T22:14:24.696Z,80414.06
2022-12-18T22:16:52.523Z,80426.25
2022-12-18T22:19:20.560Z,80420.16
2022-12-18T22:21:49.353Z,80422.19
2022-12-18T22:24:19.508Z,80414.06
2022-12-18T22:26:47.291Z,80416.09
2022-12-18T22:29:41.489Z,80430.31
2022-12-18T22:32:11.169Z,80426.25
2022-12-18T22:34:40.896Z,80434.38
2022-12-18T22:37:07.713Z,80432.34
2022-12-18T22:39:34.861Z,80438.44
2022-12-18T22:42:02.298Z,80450.59
2022-12-18T22:44:29.578Z,80446.53
2022-12-18T22:47:06.487Z,80446.53
2022-12-18T22:49:35.675Z,80446.53
2022-12-18T22:52:04.122Z,80438.44
2022-12-18T22:54:31.277Z,80442.50
2022-12-18T22:56:58.116Z,80442.50
2022-12-18T22:59:25.314Z,80446.53
2022-12-18T23:01:57.129Z,80462.78
2022-12-18T23:04:31.185Z,80479.00
2022-12-18T23:07:07.664Z,80458.72
2022-12-18T23:09:35.103Z,80454.66
2022-12-18T23:12:01.979Z,80452.63
2022-12-18T23:14:29.600Z,80458.72
2022-12-18T23:16:56.492Z,80460.75
2022-12-18T23:19:24.173Z,80474.97
2022-12-18T23:21:51.663Z,80481.03
2022-12-18T23:24:19.989Z,80472.94
2022-12-18T23:26:46.814Z,80474.97
2022-12-18T23:29:13.976Z,80470.91
2022-12-18T23:31:40.903Z,80479.00
2022-12-18T23:34:08.870Z,80474.97
2022-12-18T23:36:46.427Z,80479.00
2022-12-18T23:39:22.339Z,80487.13
2022-12-18T23:41:58.131Z,80483.06
2022-12-18T23:44:25.646Z,80483.06
2022-12-18T23:46:52.847Z,80479.00
2022-12-18T23:49:20.082Z,80481.03
2022-12-18T23:51:46.888Z,80479.00
2022-12-18T23:54:14.186Z,80472.94
2022-12-18T23:56:41.129Z,80491.19
2022-12-18T23:59:08.292Z,80499.31
